Time;durP1;ratioP1;P1;durP2;ratioP2;P2;SDS_P1;SDS_P2;PMS_P1;PMS_P2;Temp;Humidity;BMP_temperature;BMP_pressure;BME280_temperature;BME280_humidity;BME280_pressure;Samples;Min_cycle;Max_cycle;Signal;HPM_P1;HPM_P2
2022/10/17 00:02:23;;;;;;;12.10;11.10;;;;;;;6.78;96.23;94055.97;5087414;28;20198;-70
2022/10/17 00:04:48;;;;;;;12.53;11.63;;;;;;;6.84;96.32;94071.47;5070901;28;20229;-70
2022/10/17 00:07:14;;;;;;;13.03;12.13;;;;;;;6.74;96.39;94066.00;5071438;28;20177;-72
2022/10/17 00:09:42;;;;;;;12.03;11.13;;;;;;;6.65;96.50;94056.13;5071215;28;20210;-71
2022/10/17 00:12:07;;;;;;;12.23;11.33;;;;;;;6.59;96.64;94052.63;5086376;28;20210;-71
2022/10/17 00:14:33;;;;;;;12.37;11.57;;;;;;;6.39;96.87;94019.16;5071138;28;20294;-71
2022/10/17 00:16:59;;;;;;;11.83;11.13;;;;;;;6.74;96.73;94062.63;5071011;28;20181;-71
2022/10/17 00:19:24;;;;;;;11.73;11.10;;;;;;;6.61;96.98;94060.97;5070836;28;20213;-72
2022/10/17 00:21:49;;;;;;;11.93;11.13;;;;;;;6.58;97.08;94069.22;5071350;28;20194;-71
2022/10/17 00:24:15;;;;;;;11.70;10.90;;;;;;;6.44;97.30;94044.44;5070731;28;20285;-71
2022/10/17 00:26:40;;;;;;;11.70;10.77;;;;;;;6.58;97.71;94066.63;5071553;28;20235;-70
2022/10/17 00:29:06;;;;;;;12.63;11.83;;;;;;;6.71;97.49;94066.44;5069551;28;20285;-71
2022/10/17 00:31:31;;;;;;;10.90;10.30;;;;;;;6.55;97.10;94069.66;5071210;28;20225;-72
2022/10/17 00:33:56;;;;;;;12.93;12.03;;;;;;;6.50;97.12;94069.50;5070196;28;20263;-71
2022/10/17 00:36:26;;;;;;;12.43;11.63;;;;;;;6.49;97.25;94058.31;5069741;28;20174;-71
2022/10/17 00:38:57;;;;;;;12.07;11.10;;;;;;;6.41;97.54;94065.63;5068942;28;20301;-70
2022/10/17 00:41:27;;;;;;;13.67;12.77;;;;;;;6.52;97.64;94070.09;5069974;28;20201;-71
2022/10/17 00:44:30;;;;;;;11.60;10.80;;;;;;;6.53;97.11;94075.06;5069781;28;20228;-71
2022/10/17 00:47:02;;;;;;;11.63;10.87;;;;;;;6.40;97.10;94074.38;5070548;28;20223;-71
2022/10/17 00:49:31;;;;;;;12.70;11.90;;;;;;;6.43;97.95;94079.16;5068730;28;20253;-71
2022/10/17 00:52:04;;;;;;;12.40;11.27;;;;;;;6.39;97.48;94076.22;5069347;28;20205;-69
2022/10/17 00:54:36;;;;;;;12.93;11.70;;;;;;;6.37;97.54;94074.81;5069134;28;20217;-71
2022/10/17 00:57:02;;;;;;;12.43;11.63;;;;;;;6.34;97.33;94070.06;5069112;28;20193;-70
2022/10/17 00:59:29;;;;;;;13.00;12.00;;;;;;;6.19;97.78;94065.28;5069818;28;20216;-72
2022/10/17 01:02:13;;;;;;;13.20;12.17;;;;;;;6.30;97.28;94068.94;5070243;28;20193;-71
2022/10/17 01:04:41;;;;;;;13.57;12.60;;;;;;;6.26;97.33;94067.75;5069444;28;20233;-73
2022/10/17 01:07:08;;;;;;;16.40;13.13;;;;;;;6.21;97.71;94065.06;5070314;28;20198;-70
2022/10/17 01:09:34;;;;;;;13.67;12.50;;;;;;;6.24;97.48;94059.44;5069435;28;20272;-71
2022/10/17 01:12:17;;;;;;;13.27;12.27;;;;;;;6.18;97.21;94070.63;5069651;28;20209;-72
2022/10/17 01:14:55;;;;;;;13.47;12.40;;;;;;;6.12;97.58;94072.31;5068788;28;20229;-71
2022/10/17 01:17:39;;;;;;;12.50;11.70;;;;;;;6.07;97.39;94077.34;5069670;28;20219;-71
2022/10/17 01:20:32;;;;;;;12.70;11.90;;;;;;;6.05;97.59;94066.41;5067595;28;20212;-72
2022/10/17 01:23:25;;;;;;;13.03;11.97;;;;;;;6.16;97.12;94070.84;5068569;28;20254;-71
2022/10/17 01:26:32;;;;;;;12.27;11.50;;;;;;;6.27;96.74;94066.78;5068319;28;20185;-72
2022/10/17 01:29:23;;;;;;;12.97;12.00;;;;;;;6.29;97.03;94072.53;5068034;28;20248;-72
2022/10/17 01:31:58;;;;;;;10.77;10.17;;;;;;;6.18;96.70;94066.25;5069731;28;20213;-71
2022/10/17 01:34:50;;;;;;;12.37;11.27;;;;;;;5.93;96.87;94056.97;5068503;28;20224;-71
2022/10/17 01:37:25;;;;;;;12.90;12.00;;;;;;;5.94;97.02;94061.13;5068625;28;20209;-71
2022/10/17 01:40:33;;;;;;;11.17;10.50;;;;;;;6.08;96.62;94070.38;5067792;28;21031;-72
2022/10/17 01:43:06;;;;;;;12.43;11.50;;;;;;;5.84;96.46;94055.63;5004604;28;20303;-72
2022/10/17 01:45:40;;;;;;;12.90;11.90;;;;;;;5.94;96.69;94069.72;5069167;28;21075;-71
2022/10/17 01:48:15;;;;;;;12.20;11.30;;;;;;;5.82;96.61;94065.44;5068507;28;20248;-71
2022/10/17 01:50:45;;;;;;;11.37;10.57;;;;;;;5.96;96.05;94077.28;5069183;28;20189;-72
2022/10/17 01:53:16;;;;;;;12.03;11.30;;;;;;;5.91;95.64;94082.28;5068968;28;20237;-71
2022/10/17 01:55:46;;;;;;;12.10;11.30;;;;;;;6.08;96.32;94075.53;5069449;28;20186;-71
2022/10/17 01:58:23;;;;;;;10.57;9.87;;;;;;;6.04;95.42;94074.38;5068597;28;20233;-73
2022/10/17 02:00:49;;;;;;;12.00;11.10;;;;;;;5.98;95.07;94088.19;5069389;28;20185;-68
2022/10/17 02:03:18;;;;;;;11.40;10.73;;;;;;;5.91;94.84;94069.34;5068629;28;20236;-68
2022/10/17 02:05:44;;;;;;;10.93;10.23;;;;;;;6.05;94.03;94081.16;5069557;28;20643;-68
2022/10/17 02:08:10;;;;;;;11.90;11.17;;;;;;;5.97;94.21;94084.84;5069635;28;20297;-69
2022/10/17 02:10:58;;;;;;;11.03;10.23;;;;;;;6.08;92.91;94091.09;5069247;28;20181;-69
2022/10/17 02:13:45;;;;;;;11.07;10.27;;;;;;;5.84;92.15;94086.72;5068732;28;20217;-69
2022/10/17 02:16:34;;;;;;;9.73;9.23;;;;;;;5.90;91.68;94091.09;5068748;28;20200;-67
2022/10/17 02:19:06;;;;;;;10.40;9.80;;;;;;;5.97;90.37;94095.19;5068053;28;20304;-70
2022/10/17 02:21:55;;;;;;;9.93;9.53;;;;;;;5.85;91.69;94091.69;5068463;28;20189;-68
2022/10/17 02:24:31;;;;;;;9.87;9.37;;;;;;;5.84;91.16;94089.31;5068283;28;20260;-69
2022/10/17 02:27:28;;;;;;;9.37;8.97;;;;;;;5.74;90.87;94081.22;5068269;28;20193;-69
2022/10/17 02:30:35;;;;;;;10.00;9.03;;;;;;;5.68;91.94;94090.63;5068718;28;20233;-69
2022/10/17 02:33:11;;;;;;;9.77;9.27;;;;;;;5.62;90.94;94080.34;5067787;28;20231;-69
2022/10/17 02:35:40;;;;;;;10.00;9.33;;;;;;;5.71;91.04;94095.38;5068896;28;20193;-69
2022/10/17 02:38:09;;;;;;;9.57;9.07;;;;;;;5.62;90.36;94083.72;5068675;28;20226;-68
2022/10/17 02:40:36;;;;;;;9.27;8.83;;;;;;;5.59;90.10;94110.03;5069145;28;20174;-69
2022/10/17 02:43:01;;;;;;;9.67;9.17;;;;;;;5.62;89.75;94101.06;5068610;28;20246;-68
2022/10/17 02:45:29;;;;;;;9.07;8.67;;;;;;;5.65;89.89;94111.00;5069013;28;20216;-68
2022/10/17 02:48:17;;;;;;;8.43;8.13;;;;;;;5.67;89.57;94109.78;5068883;28;20219;-69
2022/10/17 02:50:54;;;;;;;8.47;8.13;;;;;;;5.54;88.78;94103.91;5068766;28;20255;-69
2022/10/17 02:53:38;;;;;;;8.67;8.13;;;;;;;5.60;88.76;94116.03;5067178;28;20237;-69
2022/10/17 02:56:13;;;;;;;8.77;8.33;;;;;;;5.58;88.79;94115.44;5068516;28;20263;-68
2022/10/17 02:58:41;;;;;;;9.40;8.90;;;;;;;5.48;88.55;94121.06;5068030;28;20248;-67
2022/10/17 03:01:07;;;;;;;8.70;8.30;;;;;;;5.56;89.92;94118.22;5069100;28;20196;-69
2022/10/17 03:03:32;;;;;;;9.23;8.83;;;;;;;5.56;89.47;94122.59;5067974;28;20221;-69
2022/10/17 03:05:58;;;;;;;10.30;9.70;;;;;;;5.49;89.63;94108.94;5066154;28;20747;-68
2022/10/17 03:08:24;;;;;;;9.60;9.20;;;;;;;5.38;89.94;94122.56;5068225;28;20210;-69
2022/10/17 03:10:50;;;;;;;9.93;9.53;;;;;;;5.48;89.65;94122.91;5068807;28;20189;-69
2022/10/17 03:13:16;;;;;;;9.53;9.13;;;;;;;5.45;88.69;94126.69;5068488;28;20684;-68
2022/10/17 03:15:41;;;;;;;9.37;8.97;;;;;;;5.26;88.29;94116.47;5070985;28;20181;-69
2022/10/17 03:18:07;;;;;;;8.97;8.57;;;;;;;5.24;88.29;94113.28;5071736;28;20237;-69
2022/10/17 03:20:32;;;;;;;8.97;8.47;;;;;;;5.39;87.25;94130.09;5070899;28;20237;-70
2022/10/17 03:22:58;;;;;;;10.20;9.60;;;;;;;5.30;87.36;94127.97;5071598;28;20296;-68
2022/10/17 03:25:23;;;;;;;10.33;9.50;;;;;;;5.30;88.16;94130.56;5072042;28;20193;-70
2022/10/17 03:27:49;;;;;;;10.30;9.80;;;;;;;5.34;88.61;94136.94;5071390;28;20197;-69
2022/10/17 03:30:14;;;;;;;9.80;9.07;;;;;;;5.40;88.56;94138.69;5071713;28;20193;-68
2022/10/17 03:32:40;;;;;;;10.33;9.73;;;;;;;5.41;88.60;94130.69;5072041;28;20267;-69
2022/10/17 03:35:05;;;;;;;11.37;10.57;;;;;;;5.41;88.98;94124.72;5071719;28;20177;-69
2022/10/17 03:37:31;;;;;;;12.17;10.90;;;;;;;5.32;89.72;94134.56;5071748;28;20205;-68
2022/10/17 03:39:56;;;;;;;13.80;12.57;;;;;;;5.24;91.15;94134.78;5070860;28;20316;-68
2022/10/17 03:42:22;;;;;;;13.40;12.27;;;;;;;5.34;91.13;94129.16;5070993;28;20216;-69
2022/10/17 03:44:47;;;;;;;12.30;11.30;;;;;;;5.17;91.81;94122.91;5069713;28;20224;-68
2022/10/17 03:47:12;;;;;;;11.60;10.90;;;;;;;5.28;91.68;94132.56;5068922;28;20224;-66
2022/10/17 03:49:38;;;;;;;12.50;11.40;;;;;;;5.14;91.90;94133.66;5069886;28;20251;-66
2022/10/17 03:52:03;;;;;;;13.00;10.93;;;;;;;5.12;92.06;94125.31;5068553;28;20213;-66
2022/10/17 03:54:28;;;;;;;12.27;11.47;;;;;;;5.26;91.98;94143.13;5053241;28;20222;-67
2022/10/17 03:56:54;;;;;;;11.33;10.50;;;;;;;5.39;91.30;94142.25;5048472;28;20249;-67
2022/10/17 03:59:19;;;;;;;11.80;10.90;;;;;;;5.16;91.50;94123.88;5050035;28;20222;-67
2022/10/17 04:01:45;;;;;;;10.90;10.27;;;;;;;5.30;90.82;94143.50;5050426;28;20212;-67
2022/10/17 04:04:10;;;;;;;10.37;9.63;;;;;;;5.13;90.71;94134.66;5049751;28;20240;-69
2022/10/17 04:06:37;;;;;;;10.53;9.93;;;;;;;5.12;90.38;94133.06;5050938;28;20218;-67
2022/10/17 04:09:03;;;;;;;11.03;10.33;;;;;;;5.13;91.02;94145.00;5061370;28;20233;-69
2022/10/17 04:11:28;;;;;;;10.93;10.23;;;;;;;5.11;90.90;94147.81;5069951;28;20189;-69
2022/10/17 04:13:55;;;;;;;11.00;10.20;;;;;;;5.03;91.33;94152.44;5070076;28;20833;-71
2022/10/17 04:16:22;;;;;;;10.67;9.93;;;;;;;5.08;92.92;94152.59;5070200;28;20283;-68
2022/10/17 04:18:55;;;;;;;11.00;10.20;;;;;;;5.22;91.87;94151.53;5069157;28;20243;-69
2022/10/17 04:21:21;;;;;;;13.27;12.03;;;;;;;5.05;92.27;94147.84;5069048;28;20186;-70
2022/10/17 04:23:46;;;;;;;12.37;11.47;;;;;;;4.97;93.79;94149.69;5068428;28;20229;-69
2022/10/17 04:26:12;;;;;;;12.80;11.73;;;;;;;5.02;94.21;94154.22;5069696;28;20196;-69
2022/10/17 04:28:37;;;;;;;13.07;11.90;;;;;;;5.10;95.43;94160.94;5069960;28;20232;-69
2022/10/17 04:31:10;;;;;;;13.20;12.10;;;;;;;5.17;93.37;94161.72;5070160;28;20205;-69
2022/10/17 04:33:36;;;;;;;12.80;11.27;;;;;;;5.09;93.94;94151.63;5069442;28;20232;-67
2022/10/17 04:36:05;;;;;;;13.77;12.70;;;;;;;5.00;96.20;94126.97;5069732;28;20188;-78
2022/10/17 04:38:31;;;;;;;13.90;12.77;;;;;;;5.23;94.66;94158.31;5067116;28;20220;-71
2022/10/17 04:40:58;;;;;;;14.77;13.40;;;;;;;5.18;94.40;94153.75;5068679;28;20205;-72
2022/10/17 04:43:24;;;;;;;14.77;13.47;;;;;;;5.21;93.77;94145.56;5067666;28;20229;-71
2022/10/17 04:45:49;;;;;;;14.83;13.37;;;;;;;5.36;93.22;94153.84;5069439;28;20204;-70
2022/10/17 04:48:14;;;;;;;15.50;13.40;;;;;;;4.93;92.78;94107.06;5067908;28;20239;-71
2022/10/17 04:50:40;;;;;;;12.90;11.60;;;;;;;5.31;93.44;94151.06;5069262;28;20197;-71
2022/10/17 04:53:05;;;;;;;12.57;11.30;;;;;;;5.26;94.03;94152.72;5069196;28;20284;-71
2022/10/17 04:55:30;;;;;;;13.07;11.90;;;;;;;5.15;94.86;94159.34;5069194;28;20201;-71
2022/10/17 04:57:56;;;;;;;13.07;11.80;;;;;;;5.24;94.37;94165.06;5068952;28;20244;-71
2022/10/17 05:00:21;;;;;;;13.40;12.50;;;;;;;5.33;94.06;94174.16;5068444;28;20189;-71
2022/10/17 05:02:46;;;;;;;12.37;11.47;;;;;;;5.22;94.24;94157.50;5068280;28;20981;-72
2022/10/17 05:05:12;;;;;;;13.97;12.60;;;;;;;5.32;94.25;94182.94;5068128;28;20229;-71
2022/10/17 05:07:41;;;;;;;14.03;12.83;;;;;;;5.41;94.33;94179.09;5068535;28;20182;-71
2022/10/17 05:10:07;;;;;;;13.70;12.53;;;;;;;5.44;94.07;94171.72;5069032;28;20835;-71
2022/10/17 05:12:32;;;;;;;15.23;13.73;;;;;;;5.37;93.92;94165.78;5069591;28;20358;-71
2022/10/17 05:14:57;;;;;;;13.77;12.60;;;;;;;5.56;94.50;94190.75;5069705;28;20277;-71
2022/10/17 05:17:23;;;;;;;13.97;12.73;;;;;;;5.48;94.58;94174.69;5069831;28;20261;-71
2022/10/17 05:19:48;;;;;;;14.23;13.10;;;;;;;5.49;94.75;94190.03;5069044;28;20233;-70
2022/10/17 05:22:14;;;;;;;15.17;12.67;;;;;;;5.53;94.99;94190.38;5069959;28;20189;-71
2022/10/17 05:24:39;;;;;;;16.03;13.70;;;;;;;5.56;95.12;94189.97;5069961;28;20233;-72
2022/10/17 05:27:05;;;;;;;17.83;14.67;;;;;;;5.64;95.23;94197.47;5070024;28;20926;-71
2022/10/17 05:29:30;;;;;;;14.23;12.73;;;;;;;5.63;95.09;94204.47;5069341;28;20280;-71
2022/10/17 05:31:56;;;;;;;14.87;13.50;;;;;;;5.61;95.34;94195.31;5069537;28;20212;-71
2022/10/17 05:34:21;;;;;;;16.13;14.50;;;;;;;5.52;95.69;94178.44;5068319;28;20217;-71
2022/10/17 05:36:47;;;;;;;19.80;14.73;;;;;;;5.77;95.14;94202.59;5069219;28;20307;-71
2022/10/17 05:39:13;;;;;;;16.80;14.80;;;;;;;5.87;95.45;94200.34;5068854;28;20217;-73
2022/10/17 05:41:39;;;;;;;15.67;14.17;;;;;;;5.89;94.88;94209.50;5068435;28;20216;-71
2022/10/17 05:44:05;;;;;;;18.93;14.80;;;;;;;5.89;95.96;94206.13;5068929;28;20225;-71
2022/10/17 05:46:30;;;;;;;15.57;13.90;;;;;;;5.91;95.88;94207.50;5069272;28;20182;-71
2022/10/17 05:48:55;;;;;;;19.80;15.00;;;;;;;5.99;95.28;94211.63;5068681;28;20217;-71
2022/10/17 05:51:21;;;;;;;16.23;14.80;;;;;;;6.11;94.35;94205.56;5069375;28;20178;-71
2022/10/17 05:53:46;;;;;;;16.67;15.03;;;;;;;6.05;94.26;94182.28;5068697;28;20221;-71
2022/10/17 05:56:13;;;;;;;16.70;14.30;;;;;;;6.32;93.61;94212.94;5069620;28;20189;-70
2022/10/17 05:58:44;;;;;;;18.40;14.47;;;;;;;6.46;92.92;94213.59;5068865;28;20232;-71
2022/10/17 06:01:11;;;;;;;15.23;13.87;;;;;;;6.54;93.20;94226.31;5069589;28;20196;-70
2022/10/17 06:03:36;;;;;;;20.93;16.07;;;;;;;6.72;91.41;94223.75;5067816;28;20259;-71
2022/10/17 06:06:07;;;;;;;15.53;14.20;;;;;;;6.86;90.59;94220.00;5069027;28;20181;-72
2022/10/17 06:08:33;;;;;;;15.70;14.17;;;;;;;6.80;89.70;94204.50;5069113;28;20225;-72
2022/10/17 06:10:58;;;;;;;14.80;13.47;;;;;;;6.85;90.74;94228.00;5069196;28;20192;-71
2022/10/17 06:13:23;;;;;;;18.67;15.70;;;;;;;6.98;90.76;94226.06;5067736;28;20225;-71
2022/10/17 06:15:49;;;;;;;17.73;15.00;;;;;;;7.06;91.12;94215.38;5069414;28;20200;-71
2022/10/17 06:18:14;;;;;;;19.07;17.13;;;;;;;7.20;91.73;94227.22;5068732;28;20221;-72
2022/10/17 06:20:40;;;;;;;26.30;17.97;;;;;;;7.30;90.77;94237.09;5069053;28;20186;-71
2022/10/17 06:23:05;;;;;;;22.37;17.10;;;;;;;6.89;91.92;94213.56;5068232;28;20243;-72
2022/10/17 06:25:32;;;;;;;23.70;17.13;;;;;;;7.34;91.23;94246.00;5069256;28;20181;-71
2022/10/17 06:27:58;;;;;;;22.50;18.17;;;;;;;7.39;90.70;94257.31;5068399;28;20241;-73
2022/10/17 06:30:23;;;;;;;22.40;18.07;;;;;;;7.39;90.75;94252.13;5068981;28;20768;-71
2022/10/17 06:32:50;;;;;;;22.03;16.57;;;;;;;7.31;91.74;94265.44;5068854;28;20243;-70
2022/10/17 06:35:15;;;;;;;22.33;17.27;;;;;;;7.51;91.00;94247.00;5068856;28;20196;-73
2022/10/17 06:37:40;;;;;;;18.83;16.83;;;;;;;7.56;90.37;94254.94;5068648;28;20185;-71
2022/10/17 06:40:07;;;;;;;19.33;17.17;;;;;;;7.19;91.95;94266.38;5069148;28;20185;-71
2022/10/17 06:42:33;;;;;;;22.63;16.87;;;;;;;7.18;91.62;94244.00;5068459;28;20197;-72
2022/10/17 06:44:59;;;;;;;18.90;17.00;;;;;;;7.51;91.11;94275.59;5068139;28;20221;-71
2022/10/17 06:47:24;;;;;;;19.77;17.80;;;;;;;7.52;91.23;94262.38;5068851;28;20216;-71
2022/10/17 06:49:49;;;;;;;20.77;18.43;;;;;;;7.73;89.95;94276.72;5070877;28;20255;-71
2022/10/17 06:52:16;;;;;;;21.10;18.60;;;;;;;7.87;88.66;94278.91;5071288;28;20232;-72
2022/10/17 06:54:42;;;;;;;22.57;17.80;;;;;;;7.83;89.27;94280.34;5072397;28;20221;-71
2022/10/17 06:57:07;;;;;;;22.57;17.90;;;;;;;7.75;88.32;94270.25;5072477;28;20182;-72
2022/10/17 06:59:33;;;;;;;19.47;17.60;;;;;;;7.74;89.51;94279.09;5072329;28;20249;-71
2022/10/17 07:02:00;;;;;;;20.50;18.20;;;;;;;7.96;88.75;94280.19;5073074;28;20177;-71
2022/10/17 07:04:26;;;;;;;26.70;18.73;;;;;;;8.04;87.70;94251.28;5072039;28;20248;-71
2022/10/17 07:06:51;;;;;;;19.97;17.47;;;;;;;8.22;86.66;94260.00;5072313;28;20224;-71
2022/10/17 07:09:17;;;;;;;21.90;17.67;;;;;;;8.49;85.68;94274.22;5070498;28;20221;-71
2022/10/17 07:11:43;;;;;;;19.67;16.70;;;;;;;8.65;85.53;94279.56;5072658;28;20236;-72
2022/10/17 07:14:08;;;;;;;20.37;17.33;;;;;;;8.83;84.98;94284.66;5071144;28;20225;-72
2022/10/17 07:16:34;;;;;;;23.83;17.43;;;;;;;8.90;84.79;94277.50;5072237;28;20189;-71
2022/10/17 07:18:59;;;;;;;28.03;17.73;;;;;;;9.07;83.59;94282.84;5070282;28;20221;-71
2022/10/17 07:21:25;;;;;;;22.27;18.90;;;;;;;9.22;83.28;94283.16;5071983;28;20253;-72
2022/10/17 07:23:50;;;;;;;22.13;16.57;;;;;;;9.33;83.24;94279.75;5070617;28;20221;-71
2022/10/17 07:26:17;;;;;;;20.20;17.47;;;;;;;9.19;84.63;94281.00;5071478;28;20181;-71
2022/10/17 07:28:44;;;;;;;19.23;17.00;;;;;;;9.45;82.85;94288.31;5071728;28;20324;-71
2022/10/17 07:31:14;;;;;;;17.43;15.63;;;;;;;9.77;81.58;94289.50;5071795;28;20237;-71
2022/10/17 07:33:41;;;;;;;17.50;15.90;;;;;;;10.03;79.82;94294.16;5071764;28;20241;-71
2022/10/17 07:36:07;;;;;;;18.43;14.33;;;;;;;10.00;79.01;94281.56;5071078;28;20231;-72
2022/10/17 07:38:33;;;;;;;16.20;14.60;;;;;;;10.07;79.72;94303.13;5071487;28;20217;-72
2022/10/17 07:41:02;;;;;;;16.03;14.20;;;;;;;9.97;80.21;94300.31;5071398;28;20189;-71
2022/10/17 07:43:28;;;;;;;16.97;15.23;;;;;;;10.29;77.68;94304.03;5071496;28;20236;-71
2022/10/17 07:45:54;;;;;;;14.20;12.83;;;;;;;10.57;75.68;94301.38;5071793;28;20212;-71
2022/10/17 07:48:21;;;;;;;15.07;13.53;;;;;;;10.44;76.83;94301.72;5070093;28;20259;-72
2022/10/17 07:50:46;;;;;;;14.50;13.17;;;;;;;10.61;75.53;94309.53;5071422;28;20605;-72
2022/10/17 07:53:12;;;;;;;13.07;12.00;;;;;;;10.86;72.57;94297.66;5070285;28;20231;-71
2022/10/17 07:55:39;;;;;;;14.17;12.80;;;;;;;10.97;72.71;94307.22;5071477;28;20186;-71
2022/10/17 07:58:05;;;;;;;14.10;12.93;;;;;;;11.23;72.20;94317.03;5071155;28;20230;-71
2022/10/17 08:00:30;;;;;;;12.60;11.40;;;;;;;11.36;70.51;94310.69;5069886;28;20207;-71
2022/10/17 08:02:55;;;;;;;12.80;11.60;;;;;;;11.38;70.70;94315.66;5070343;28;20285;-71
2022/10/17 08:05:21;;;;;;;16.23;13.30;;;;;;;11.43;70.02;94305.25;5069329;28;20217;-71
2022/10/17 08:07:46;;;;;;;14.37;13.13;;;;;;;11.46;70.46;94310.00;5071087;28;20216;-71
2022/10/17 08:10:13;;;;;;;12.90;11.67;;;;;;;11.51;69.14;94307.47;5071442;28;20195;-71
2022/10/17 08:12:38;;;;;;;13.47;12.37;;;;;;;11.70;66.05;94295.69;5070984;28;20212;-71
2022/10/17 08:15:05;;;;;;;12.90;11.63;;;;;;;11.79;63.67;94300.25;5070668;28;20186;-73
2022/10/17 08:17:30;;;;;;;11.87;10.97;;;;;;;11.64;64.81;94296.69;5070037;28;20183;-71
2022/10/17 08:19:56;;;;;;;15.20;13.60;;;;;;;11.97;66.63;94299.16;5070471;28;20236;-71
2022/10/17 08:22:21;;;;;;;12.93;11.90;;;;;;;11.91;67.05;94290.44;5070709;28;20193;-71
2022/10/17 08:24:47;;;;;;;13.57;12.17;;;;;;;12.04;64.62;94266.53;5070684;28;20228;-71
2022/10/17 08:27:12;;;;;;;12.67;11.47;;;;;;;12.07;64.56;94297.44;5070498;28;20227;-71
2022/10/17 08:29:41;;;;;;;12.47;11.57;;;;;;;12.21;63.70;94297.84;5070482;28;20234;-72
2022/10/17 08:32:08;;;;;;;13.53;12.47;;;;;;;12.52;61.31;94299.69;5070212;28;20197;-70
2022/10/17 08:34:33;;;;;;;16.60;12.27;;;;;;;12.59;62.20;94310.78;5069143;28;20209;-72
2022/10/17 08:36:59;;;;;;;14.13;12.90;;;;;;;12.60;61.59;94296.63;5070371;28;20182;-72
2022/10/17 08:39:24;;;;;;;13.70;12.53;;;;;;;12.82;61.19;94297.34;5070019;28;20249;-71
2022/10/17 08:41:52;;;;;;;13.33;12.13;;;;;;;12.79;60.47;94303.88;5070757;28;20212;-70
2022/10/17 08:44:58;;;;;;;13.87;12.70;;;;;;;12.86;61.49;94295.78;5069865;28;20225;-71
2022/10/17 08:47:34;;;;;;;13.20;12.00;;;;;;;12.92;58.51;94310.50;5025576;28;20228;-71
2022/10/17 08:50:04;;;;;;;11.83;10.07;;;;;;;13.16;54.51;94306.53;5069135;28;20247;-71
2022/10/17 08:52:43;;;;;;;11.77;10.97;;;;;;;13.24;54.76;94308.69;5069893;28;20210;-71
2022/10/17 08:55:21;;;;;;;11.37;10.47;;;;;;;13.25;55.46;94309.47;5049525;28;20221;-71
2022/10/17 08:57:47;;;;;;;11.17;10.43;;;;;;;13.26;52.62;94311.06;5047015;28;20197;-71
2022/10/17 09:00:22;;;;;;;11.17;10.37;;;;;;;13.47;50.24;94310.91;5042333;28;20246;-72
2022/10/17 09:03:25;;;;;;;10.33;9.63;;;;;;;13.56;45.68;94311.22;5045330;28;20186;-71
2022/10/17 09:06:12;;;;;;;10.67;9.13;;;;;;;13.51;46.88;94313.84;5069573;28;20216;-71
2022/10/17 09:08:45;;;;;;;9.97;9.27;;;;;;;13.37;47.19;94289.88;5068352;28;20224;-74
2022/10/17 09:11:16;;;;;;;11.57;10.67;;;;;;;13.75;48.97;94315.78;5068547;28;20185;-71
2022/10/17 09:13:50;;;;;;;11.50;10.30;;;;;;;13.78;47.63;94310.03;5084800;28;20292;-71
2022/10/17 09:16:25;;;;;;;11.53;10.73;;;;;;;13.85;46.92;94318.44;5068499;28;20238;-72
2022/10/17 09:19:02;;;;;;;10.80;10.00;;;;;;;13.82;45.69;94312.94;5068585;28;20240;-71
2022/10/17 09:21:41;;;;;;;10.47;9.60;;;;;;;14.04;42.90;94324.03;5069065;28;20188;-70
2022/10/17 09:24:24;;;;;;;11.93;11.13;;;;;;;13.99;44.95;94298.53;5068897;28;20299;-71
2022/10/17 09:26:50;;;;;;;12.17;11.27;;;;;;;14.01;46.19;94314.84;5069969;28;20196;-72
2022/10/17 09:29:24;;;;;;;11.50;10.57;;;;;;;14.03;45.22;94318.00;5069614;28;20232;-70
2022/10/17 09:32:28;;;;;;;12.03;10.83;;;;;;;14.07;45.14;94302.53;5070196;28;20224;-70
2022/10/17 09:34:54;;;;;;;10.30;9.63;;;;;;;14.22;44.10;94319.13;5049873;28;20320;-74
2022/10/17 09:37:28;;;;;;;10.57;9.67;;;;;;;14.18;40.96;94310.16;5068588;28;20185;-71
2022/10/17 09:39:54;;;;;;;10.40;9.80;;;;;;;14.25;42.96;94316.00;5069358;28;20217;-71
2022/10/17 09:42:25;;;;;;;11.40;10.60;;;;;;;14.30;43.03;94313.38;5068760;28;20196;-72
2022/10/17 09:45:12;;;;;;;12.00;9.63;;;;;;;14.34;42.46;94306.56;5068973;28;20226;-74
2022/10/17 09:47:56;;;;;;;11.17;10.23;;;;;;;14.43;44.37;94314.72;5069068;28;20188;-72
2022/10/17 09:50:27;;;;;;;10.50;9.73;;;;;;;14.48;43.50;94310.28;5068350;28;20205;-71
2022/10/17 09:52:54;;;;;;;9.87;9.23;;;;;;;14.39;44.02;94306.59;5068101;28;20224;-73
2022/10/17 09:55:41;;;;;;;10.57;9.87;;;;;;;14.52;43.82;94305.28;5068802;28;20178;-71
2022/10/17 09:58:08;;;;;;;9.90;9.10;;;;;;;14.71;42.74;94303.72;5068668;28;20241;-73
2022/10/17 10:00:39;;;;;;;10.43;9.73;;;;;;;14.67;43.45;94307.13;5069104;28;20208;-72
2022/10/17 10:03:08;;;;;;;10.47;9.73;;;;;;;14.89;42.76;94308.47;5068394;28;20229;-72
2022/10/17 10:05:33;;;;;;;9.57;8.87;;;;;;;14.85;40.29;94291.63;5068488;28;20284;-72
2022/10/17 10:08:14;;;;;;;10.17;9.60;;;;;;;14.78;40.72;94298.19;5068699;28;20225;-71
2022/10/17 10:10:42;;;;;;;9.37;8.67;;;;;;;14.77;40.55;94296.63;5069497;28;20193;-71
2022/10/17 10:13:26;;;;;;;10.47;9.47;;;;;;;14.88;40.43;94295.59;5068740;28;20217;-72
2022/10/17 10:15:51;;;;;;;10.10;9.50;;;;;;;14.87;40.22;94296.63;5069413;28;20634;-71
2022/10/17 10:18:33;;;;;;;10.00;9.30;;;;;;;14.99;40.70;94297.94;5068114;28;20217;-69
2022/10/17 10:21:05;;;;;;;10.50;9.50;;;;;;;15.01;40.59;94297.66;5068786;28;20272;-71
2022/10/17 10:23:30;;;;;;;11.10;10.17;;;;;;;14.90;41.00;94290.84;5070947;28;20235;-72
2022/10/17 10:25:57;;;;;;;10.03;9.37;;;;;;;14.66;42.21;94293.22;5073218;28;20194;-72
2022/10/17 10:28:26;;;;;;;9.90;9.10;;;;;;;14.90;42.48;94291.63;5073094;28;20259;-72
2022/10/17 10:30:54;;;;;;;10.50;9.83;;;;;;;15.09;39.93;94282.16;5073009;28;20185;-70
2022/10/17 10:33:29;;;;;;;10.00;9.40;;;;;;;14.95;40.31;94272.41;5072885;28;20233;-72
2022/10/17 10:36:00;;;;;;;10.13;9.23;;;;;;;15.06;41.43;94277.44;5072125;28;20185;-71
2022/10/17 10:38:25;;;;;;;10.60;10.00;;;;;;;15.31;42.03;94276.59;5071914;28;20205;-72
2022/10/17 10:40:54;;;;;;;10.77;9.97;;;;;;;15.25;41.45;94285.56;5072378;28;20223;-71
2022/10/17 10:43:28;;;;;;;11.10;10.40;;;;;;;15.48;40.60;94282.38;5066108;28;20237;-72
2022/10/17 10:45:54;;;;;;;9.87;9.17;;;;;;;15.34;42.76;94273.44;5051804;28;20213;-72
2022/10/17 10:48:21;;;;;;;9.73;9.13;;;;;;;15.52;42.41;94278.13;5052518;28;20224;-72
2022/10/17 10:50:49;;;;;;;10.13;9.40;;;;;;;15.59;40.92;94270.75;5052365;28;20198;-72
2022/10/17 10:53:41;;;;;;;10.43;9.70;;;;;;;15.64;38.97;94270.75;5052320;28;20226;-71
2022/10/17 10:56:09;;;;;;;9.87;9.07;;;;;;;15.39;40.80;94258.44;5048863;28;20206;-71
2022/10/17 10:58:52;;;;;;;9.33;8.73;;;;;;;15.46;40.75;94268.69;5051299;28;20237;-72
2022/10/17 11:01:30;;;;;;;10.17;9.50;;;;;;;15.56;41.41;94258.13;5052042;28;20194;-71
2022/10/17 11:04:04;;;;;;;9.47;9.00;;;;;;;15.61;40.48;94247.59;5045244;28;20249;-72
2022/10/17 11:06:35;;;;;;;10.00;9.40;;;;;;;15.63;39.63;94248.09;5044177;28;20182;-72
2022/10/17 11:09:03;;;;;;;10.77;10.03;;;;;;;15.70;38.83;94256.50;5047492;28;20267;-72
2022/10/17 11:11:38;;;;;;;9.73;8.90;;;;;;;15.49;39.93;94252.34;5052289;28;20198;-71
2022/10/17 11:14:16;;;;;;;10.33;9.63;;;;;;;15.59;40.68;94250.50;5063844;28;20248;-71
2022/10/17 11:17:02;;;;;;;8.80;8.30;;;;;;;15.78;38.86;94240.91;5071409;28;20197;-72
2022/10/17 11:19:37;;;;;;;9.93;9.40;;;;;;;15.76;38.21;94226.44;5070522;28;20221;-71
2022/10/17 11:22:15;;;;;;;9.53;8.93;;;;;;;15.98;38.29;94246.09;5071772;28;20200;-72
2022/10/17 11:25:29;;;;;;;9.87;9.17;;;;;;;16.03;37.61;94247.94;5070754;28;20229;-71
2022/10/17 11:27:54;;;;;;;9.90;9.07;;;;;;;16.11;37.07;94239.44;5062906;28;20212;-72
2022/10/17 11:30:22;;;;;;;10.27;9.30;;;;;;;16.10;37.31;94219.41;5071494;28;20741;-72
2022/10/17 11:32:52;;;;;;;9.57;8.97;;;;;;;16.03;37.88;94225.00;5071682;28;20217;-73
2022/10/17 11:35:32;;;;;;;9.30;8.70;;;;;;;16.17;37.79;94242.84;5070921;28;20213;-72
2022/10/17 11:38:01;;;;;;;8.97;8.47;;;;;;;16.20;36.76;94229.91;5071701;28;20237;-72
2022/10/17 11:40:31;;;;;;;9.07;8.50;;;;;;;16.20;36.63;94227.28;5070604;28;20192;-72
2022/10/17 11:43:05;;;;;;;9.40;8.80;;;;;;;16.21;36.83;94236.75;5069857;28;20228;-72